Time;durP1;ratioP1;P1;durP2;ratioP2;P2;SDS_P1;SDS_P2;PMS_P1;PMS_P2;Temp;Humidity;BMP_temperature;BMP_pressure;BME280_temperature;BME280_humidity;BME280_pressure;Samples;Min_cycle;Max_cycle;Signal;HPM_P1;HPM_P2
2021/07/12 00:01:07;;;;;;;3.73;2.97;;;16.20;99.90;;;;;;5016531;28;20188;-52
2021/07/12 00:03:33;;;;;;;3.60;2.60;;;16.10;99.90;;;;;;5016943;28;20179;-61
2021/07/12 00:05:59;;;;;;;2.53;2.30;;;16.00;99.90;;;;;;5016717;28;20173;-59
2021/07/12 00:08:24;;;;;;;3.87;2.77;;;16.00;99.90;;;;;;5016672;28;20200;-61
2021/07/12 00:10:50;;;;;;;2.57;2.37;;;16.00;99.90;;;;;;5016584;28;20648;-58
2021/07/12 00:13:16;;;;;;;3.33;2.33;;;16.00;99.90;;;;;;5016767;28;20177;-54
2021/07/12 00:15:41;;;;;;;3.93;2.53;;;16.00;99.90;;;;;;5016493;28;20206;-55
2021/07/12 00:18:07;;;;;;;2.97;2.27;;;16.00;99.90;;;;;;5016215;28;20262;-58
2021/07/12 00:20:32;;;;;;;4.00;2.70;;;16.00;99.90;;;;;;5016356;28;20180;-56
2021/07/12 00:22:58;;;;;;;3.27;2.97;;;15.90;99.90;;;;;;5016437;28;20187;-61
2021/07/12 00:25:26;;;;;;;3.13;2.93;;;15.90;99.90;;;;;;5016464;28;20560;-61
2021/07/12 00:27:51;;;;;;;3.30;3.10;;;15.90;99.90;;;;;;5016499;28;20242;-60
2021/07/12 00:30:20;;;;;;;3.53;3.23;;;16.00;99.90;;;;;;5015167;28;20270;-53
2021/07/12 00:32:45;;;;;;;3.30;3.00;;;16.00;99.90;;;;;;5016254;28;20195;-58
2021/07/12 00:35:12;;;;;;;3.50;3.20;;;16.00;99.90;;;;;;5016359;28;20173;-53
2021/07/12 00:37:38;;;;;;;6.73;4.10;;;16.00;99.90;;;;;;5015879;28;20209;-58
2021/07/12 00:40:06;;;;;;;5.30;4.80;;;16.00;99.90;;;;;;5016062;28;20169;-61
2021/07/12 00:42:32;;;;;;;5.10;4.60;;;16.10;99.90;;;;;;5015738;28;20651;-59
2021/07/12 00:44:57;;;;;;;4.23;3.87;;;16.20;99.90;;;;;;5015604;28;20161;-58
2021/07/12 00:47:23;;;;;;;4.50;3.70;;;16.20;99.90;;;;;;5015869;28;20553;-57
2021/07/12 00:49:49;;;;;;;4.60;4.20;;;16.20;99.90;;;;;;5015953;28;20260;-54
2021/07/12 00:52:14;;;;;;;6.27;5.67;;;16.20;99.90;;;;;;5015704;28;20246;-58
2021/07/12 00:54:40;;;;;;;6.10;5.50;;;16.20;99.90;;;;;;5015798;28;20169;-58
2021/07/12 00:57:06;;;;;;;6.03;5.43;;;16.10;99.90;;;;;;5015747;28;20208;-57
2021/07/12 00:59:35;;;;;;;6.37;5.77;;;16.10;99.90;;;;;;5015680;28;20215;-61
2021/07/12 01:02:02;;;;;;;5.23;4.73;;;16.10;99.90;;;;;;5015439;28;20581;-54
2021/07/12 01:04:28;;;;;;;6.73;5.63;;;16.10;99.90;;;;;;5015623;28;20172;-57
2021/07/12 01:06:54;;;;;;;5.47;4.67;;;16.10;99.90;;;;;;5015486;28;20197;-58
2021/07/12 01:09:19;;;;;;;6.77;4.90;;;16.10;99.90;;;;;;5015439;28;20537;-55
2021/07/12 01:11:52;;;;;;;4.83;4.43;;;15.90;99.90;;;;;;5015467;28;20176;-59
2021/07/12 01:14:48;;;;;;;5.43;4.93;;;15.60;99.90;;;;;;5015503;28;20181;-58
2021/07/12 01:17:26;;;;;;;7.00;4.97;;;15.60;99.90;;;;;;5015432;28;20694;-58
2021/07/12 01:20:06;;;;;;;4.83;4.43;;;15.60;99.90;;;;;;5015360;28;20183;-59
2021/07/12 01:22:53;;;;;;;5.07;4.40;;;15.60;99.90;;;;;;5015246;28;20246;-56
2021/07/12 01:26:08;;;;;;;4.60;4.23;;;15.70;99.90;;;;;;5015277;28;20177;-57
2021/07/12 01:29:06;;;;;;;7.30;5.50;;;15.90;99.90;;;;;;5015260;28;20204;-61
2021/07/12 01:31:54;;;;;;;5.53;5.03;;;15.80;99.90;;;;;;5015076;28;20195;-61
2021/07/12 01:34:20;;;;;;;4.77;4.37;;;15.90;99.90;;;;;;4996130;28;20188;-58
2021/07/12 01:36:57;;;;;;;6.87;4.40;;;15.90;99.90;;;;;;5014966;28;20175;-53
2021/07/12 01:39:29;;;;;;;3.90;3.60;;;15.90;99.90;;;;;;5015064;28;20246;-60
2021/07/12 01:42:05;;;;;;;5.97;4.07;;;15.90;99.90;;;;;;5014730;28;20525;-59
2021/07/12 01:44:49;;;;;;;10.93;3.90;;;16.00;99.90;;;;;;5015179;28;20204;-59
2021/07/12 01:47:23;;;;;;;4.03;3.73;;;15.90;99.90;;;;;;5014929;28;20203;-57
2021/07/12 01:50:01;;;;;;;3.80;3.50;;;16.00;99.90;;;;;;5015048;28;20183;-61
2021/07/12 01:52:54;;;;;;;8.90;3.57;;;16.00;99.90;;;;;;5014723;28;20259;-57
2021/07/12 01:55:40;;;;;;;3.83;3.50;;;15.90;99.90;;;;;;5014649;28;20183;-52
2021/07/12 01:58:27;;;;;;;3.50;3.20;;;15.90;99.90;;;;;;5014594;28;20204;-59
2021/07/12 02:00:53;;;;;;;3.63;3.33;;;15.90;99.90;;;;;;5014712;28;20272;-54
2021/07/12 02:03:22;;;;;;;3.30;3.00;;;15.90;99.90;;;;;;5014794;28;20207;-57
2021/07/12 02:05:50;;;;;;;3.53;3.23;;;15.90;99.90;;;;;;5014681;28;20172;-58
2021/07/12 02:08:20;;;;;;;3.13;2.90;;;15.90;99.90;;;;;;5014429;28;20211;-58
2021/07/12 02:10:47;;;;;;;3.40;3.10;;;15.80;99.90;;;;;;5014370;28;20668;-61
2021/07/12 02:13:14;;;;;;;3.40;3.10;;;15.70;99.90;;;;;;5014494;28;20200;-57
2021/07/12 02:15:43;;;;;;;3.90;3.40;;;15.60;99.90;;;;;;5014556;28;20177;-60
2021/07/12 02:18:09;;;;;;;3.30;3.10;;;15.50;99.90;;;;;;5014166;28;20212;-58
2021/07/12 02:20:36;;;;;;;3.67;3.10;;;15.40;99.90;;;;;;5014513;28;20528;-59
2021/07/12 02:23:04;;;;;;;3.00;2.80;;;15.30;99.90;;;;;;5014314;28;20177;-61
2021/07/12 02:25:30;;;;;;;3.47;3.03;;;15.30;99.90;;;;;;5014309;28;20171;-59
2021/07/12 02:27:57;;;;;;;3.17;2.90;;;15.30;99.90;;;;;;5014387;28;20194;-52
2021/07/12 02:30:24;;;;;;;4.57;3.70;;;15.20;99.90;;;;;;5014317;28;20222;-52
2021/07/12 02:32:51;;;;;;;3.70;3.40;;;15.10;99.90;;;;;;5014010;28;20568;-56
2021/07/12 02:35:17;;;;;;;4.10;3.80;;;15.10;99.90;;;;;;5014252;28;20644;-56
2021/07/12 02:37:45;;;;;;;3.43;3.23;;;15.20;99.90;;;;;;5014168;28;20266;-61
2021/07/12 02:40:14;;;;;;;5.63;3.40;;;15.20;99.90;;;;;;5014148;28;20183;-61
2021/07/12 02:42:44;;;;;;;3.90;3.50;;;15.20;99.90;;;;;;5013997;28;20203;-55
2021/07/12 02:45:10;;;;;;;3.30;3.10;;;15.10;99.90;;;;;;5014200;28;20213;-58
2021/07/12 02:47:37;;;;;;;3.60;3.30;;;15.10;99.90;;;;;;5014127;28;20191;-56
2021/07/12 02:50:08;;;;;;;4.93;3.53;;;15.10;99.90;;;;;;5013992;28;20173;-61
2021/07/12 02:52:42;;;;;;;4.37;3.00;;;15.10;99.90;;;;;;5013769;28;20269;-61
2021/07/12 02:55:08;;;;;;;3.80;3.50;;;15.00;99.90;;;;;;5014076;28;20179;-61
2021/07/12 02:57:34;;;;;;;3.60;3.30;;;15.00;99.90;;;;;;5013999;28;20206;-58
2021/07/12 02:59:59;;;;;;;4.67;4.27;;;15.00;99.90;;;;;;5026442;28;20202;-59
2021/07/12 03:02:26;;;;;;;5.27;4.03;;;15.00;99.90;;;;;;5033428;28;20178;-59
2021/07/12 03:04:51;;;;;;;5.80;4.80;;;15.00;99.90;;;;;;5032743;28;20681;-60
2021/07/12 03:07:33;;;;;;;5.90;4.57;;;15.00;99.90;;;;;;5033278;28;20201;-59
2021/07/12 03:10:06;;;;;;;5.20;4.73;;;15.00;99.90;;;;;;5037579;28;20189;-59
2021/07/12 03:12:42;;;;;;;4.23;3.83;;;15.00;99.90;;;;;;5037236;28;20180;-61
2021/07/12 03:15:10;;;;;;;3.90;3.07;;;15.00;99.90;;;;;;5037360;28;20569;-61
2021/07/12 03:17:40;;;;;;;5.33;3.53;;;15.00;99.90;;;;;;5037226;28;20217;-58
2021/07/12 03:20:08;;;;;;;3.40;3.10;;;15.00;99.90;;;;;;5037354;28;20174;-58
2021/07/12 03:22:37;;;;;;;3.00;2.70;;;15.00;99.90;;;;;;5037189;28;20176;-59
2021/07/12 03:25:04;;;;;;;5.60;2.90;;;14.90;99.90;;;;;;5037376;28;20183;-56
2021/07/12 03:27:31;;;;;;;2.90;2.70;;;14.90;99.90;;;;;;5037055;28;20220;-58
2021/07/12 03:30:00;;;;;;;3.20;2.90;;;14.80;99.90;;;;;;5037179;28;20185;-57
2021/07/12 03:32:30;;;;;;;4.77;4.30;;;14.90;99.90;;;;;;5035783;28;20659;-54
2021/07/12 03:34:57;;;;;;;4.53;4.00;;;14.80;99.90;;;;;;5037207;28;20228;-55
2021/07/12 03:37:23;;;;;;;3.43;2.70;;;14.80;99.90;;;;;;5036950;28;20271;-55
2021/07/12 03:39:49;;;;;;;3.13;2.83;;;14.80;99.90;;;;;;5037083;28;20215;-58
2021/07/12 03:42:17;;;;;;;3.20;2.97;;;14.70;99.90;;;;;;5036761;28;20184;-55
2021/07/12 03:44:43;;;;;;;3.43;3.13;;;14.70;99.90;;;;;;5036826;28;20654;-56
2021/07/12 03:47:29;;;;;;;3.50;2.70;;;14.70;99.90;;;;;;5036803;28;20195;-58
2021/07/12 03:50:11;;;;;;;3.13;2.93;;;14.60;99.90;;;;;;5036984;28;20176;-59
2021/07/12 03:52:44;;;;;;;3.30;2.50;;;14.60;99.90;;;;;;5036871;28;20270;-55
2021/07/12 03:55:12;;;;;;;3.70;3.40;;;14.60;99.90;;;;;;5036688;28;20213;-56
2021/07/12 03:57:38;;;;;;;4.50;3.60;;;14.60;99.90;;;;;;5036543;28;20237;-61
2021/07/12 04:00:06;;;;;;;4.10;3.60;;;14.50;99.90;;;;;;5036735;28;20220;-61
2021/07/12 04:02:32;;;;;;;5.23;3.70;;;14.50;99.90;;;;;;5036357;28;20268;-58
2021/07/12 04:04:57;;;;;;;4.43;3.30;;;14.40;99.90;;;;;;5036757;28;20204;-58
2021/07/12 04:07:23;;;;;;;3.60;3.30;;;14.40;99.90;;;;;;5036517;28;20197;-60
2021/07/12 04:09:48;;;;;;;3.20;2.90;;;14.50;99.90;;;;;;5036268;28;20189;-60
2021/07/12 04:12:22;;;;;;;2.80;2.60;;;14.60;99.90;;;;;;5036197;28;20209;-60
2021/07/12 04:14:48;;;;;;;2.90;2.70;;;14.50;99.90;;;;;;5036559;28;20184;-52
2021/07/12 04:17:14;;;;;;;2.90;2.60;;;14.60;99.90;;;;;;5036069;28;20210;-52
2021/07/12 04:19:39;;;;;;;3.03;2.70;;;14.60;99.90;;;;;;5035167;28;20186;-57
2021/07/12 04:22:05;;;;;;;3.03;2.73;;;14.60;99.90;;;;;;5035980;28;20178;-61
2021/07/12 04:24:30;;;;;;;3.60;2.50;;;14.70;99.90;;;;;;5036274;28;20184;-54
2021/07/12 04:26:56;;;;;;;3.50;2.60;;;14.80;99.90;;;;;;5036063;28;20197;-55
2021/07/12 04:29:21;;;;;;;2.80;2.60;;;14.80;99.90;;;;;;5036227;28;20183;-58
2021/07/12 04:31:48;;;;;;;3.70;2.40;;;14.80;99.90;;;;;;5035793;28;20175;-56
2021/07/12 04:34:14;;;;;;;3.00;2.60;;;14.80;99.90;;;;;;5035940;28;20703;-57
2021/07/12 04:36:39;;;;;;;2.67;2.47;;;14.60;99.90;;;;;;5035931;28;20214;-61
2021/07/12 04:39:05;;;;;;;3.00;2.80;;;14.40;99.90;;;;;;5035864;28;20181;-59
2021/07/12 04:41:30;;;;;;;2.67;2.47;;;14.40;99.90;;;;;;5035824;28;20166;-60
2021/07/12 04:43:56;;;;;;;2.67;2.47;;;14.20;99.90;;;;;;5035936;28;20174;-60
2021/07/12 04:46:21;;;;;;;2.37;2.20;;;14.20;99.90;;;;;;5034250;28;20242;-61
2021/07/12 04:48:47;;;;;;;2.30;2.20;;;14.20;99.90;;;;;;5035551;28;20544;-59
2021/07/12 04:51:13;;;;;;;2.40;2.20;;;14.40;99.90;;;;;;5034294;28;20692;-59
2021/07/12 04:53:39;;;;;;;2.50;2.40;;;14.50;99.90;;;;;;5035479;28;20647;-58
2021/07/12 04:56:07;;;;;;;2.57;2.37;;;14.70;99.90;;;;;;5034523;28;20278;-59
2021/07/12 04:58:35;;;;;;;6.70;3.90;;;14.90;99.90;;;;;;5034760;28;20222;-59
2021/07/12 05:01:01;;;;;;;4.00;3.50;;;15.10;99.90;;;;;;5034989;28;20194;-57
2021/07/12 05:03:31;;;;;;;4.20;3.80;;;15.30;99.90;;;;;;5034433;28;20172;-56
2021/07/12 05:05:57;;;;;;;3.80;3.30;;;15.30;99.90;;;;;;5035101;28;20196;-58
2021/07/12 05:08:23;;;;;;;3.63;3.33;;;15.40;99.90;;;;;;5035431;28;20208;-59
2021/07/12 05:10:48;;;;;;;3.30;3.00;;;15.40;99.90;;;;;;5035272;28;20195;-61
2021/07/12 05:13:14;;;;;;;26.43;3.00;;;15.80;99.90;;;;;;5035269;28;20198;-61
2021/07/12 05:15:39;;;;;;;2.60;2.00;;;15.30;99.90;;;;;;5035264;28;20198;-55
2021/07/12 05:18:06;;;;;;;2.50;2.07;;;15.20;99.90;;;;;;5035119;28;20294;-61
2021/07/12 05:20:32;;;;;;;2.23;2.13;;;15.20;99.90;;;;;;5034316;28;20222;-61
2021/07/12 05:22:58;;;;;;;3.20;2.90;;;14.90;99.90;;;;;;5035037;28;20176;-55
2021/07/12 05:25:25;;;;;;;2.87;2.63;;;15.00;99.90;;;;;;5035153;28;20183;-60
2021/07/12 05:27:51;;;;;;;5.93;2.60;;;15.10;99.90;;;;;;5034940;28;20204;-55
2021/07/12 05:30:17;;;;;;;2.57;2.33;;;15.20;99.90;;;;;;5034802;28;20187;-60
2021/07/12 05:32:43;;;;;;;2.07;1.97;;;15.30;99.90;;;;;;5034606;28;20523;-57
2021/07/12 05:35:09;;;;;;;2.13;2.03;;;15.50;99.90;;;;;;5032450;28;20276;-55
2021/07/12 05:37:34;;;;;;;1.87;1.77;;;15.70;99.90;;;;;;5034476;28;20199;-60
2021/07/12 05:40:00;;;;;;;2.20;2.00;;;15.80;99.90;;;;;;5034521;28;20178;-58
2021/07/12 05:42:26;;;;;;;2.60;2.40;;;15.90;99.90;;;;;;5033552;28;20174;-58
2021/07/12 05:44:51;;;;;;;3.10;2.90;;;16.00;99.90;;;;;;5034296;28;20180;-61
2021/07/12 05:47:17;;;;;;;3.90;2.83;;;16.10;99.90;;;;;;5034509;28;20196;-60
2021/07/12 05:49:43;;;;;;;2.50;2.30;;;16.30;99.90;;;;;;5034576;28;20186;-56
2021/07/12 05:52:09;;;;;;;2.60;2.40;;;16.30;99.90;;;;;;5033074;28;20175;-57
2021/07/12 05:54:34;;;;;;;2.70;2.50;;;16.30;99.90;;;;;;5032224;28;20299;-56
2021/07/12 05:57:00;;;;;;;2.80;2.60;;;16.50;99.90;;;;;;5033631;28;20534;-58
2021/07/12 05:59:25;;;;;;;3.07;2.47;;;16.20;99.90;;;;;;5033371;28;20168;-61
2021/07/12 06:01:51;;;;;;;2.73;2.53;;;16.20;99.90;;;;;;5033351;28;20168;-60
2021/07/12 06:04:17;;;;;;;4.30;3.03;;;16.20;99.90;;;;;;5034987;28;20200;-59
2021/07/12 06:06:42;;;;;;;3.23;3.03;;;16.10;99.90;;;;;;5034178;28;20644;-56
2021/07/12 06:09:08;;;;;;;2.40;2.30;;;16.00;99.90;;;;;;5034102;28;20266;-53
2021/07/12 06:11:33;;;;;;;2.03;1.93;;;15.80;99.90;;;;;;5034062;28;20254;-53
2021/07/12 06:13:59;;;;;;;2.37;2.27;;;16.00;99.90;;;;;;5034049;28;20227;-54
2021/07/12 06:16:25;;;;;;;2.70;2.50;;;16.20;99.90;;;;;;5034061;28;20175;-53
2021/07/12 06:18:51;;;;;;;2.90;2.70;;;16.20;99.90;;;;;;5034681;28;20215;-60
2021/07/12 06:21:17;;;;;;;2.60;2.50;;;16.00;99.90;;;;;;5034112;28;20184;-61
2021/07/12 06:23:42;;;;;;;2.50;2.30;;;16.00;99.90;;;;;;5034181;28;20176;-60
2021/07/12 06:26:08;;;;;;;2.57;2.10;;;16.20;99.90;;;;;;5033955;28;20227;-52
2021/07/12 06:28:33;;;;;;;2.80;2.60;;;16.40;99.90;;;;;;5034526;28;20217;-55
2021/07/12 06:30:59;;;;;;;2.40;2.20;;;16.60;99.90;;;;;;5033732;28;20227;-58
2021/07/12 06:33:29;;;;;;;2.20;2.10;;;16.80;99.90;;;;;;5033945;28;20188;-55
2021/07/12 06:35:55;;;;;;;2.10;2.00;;;16.90;99.90;;;;;;5038404;28;20580;-60
2021/07/12 06:38:21;;;;;;;2.17;2.07;;;17.10;99.90;;;;;;5033901;28;20239;-60
2021/07/12 06:40:47;;;;;;;2.10;1.90;;;17.30;99.90;;;;;;5034068;28;20172;-58
2021/07/12 06:43:13;;;;;;;2.67;2.50;;;17.50;99.90;;;;;;5033022;28;20169;-61
2021/07/12 06:45:38;;;;;;;2.50;2.37;;;17.40;99.90;;;;;;5033829;28;20527;-56
2021/07/12 06:48:05;;;;;;;2.40;2.20;;;17.30;99.90;;;;;;5033787;28;20206;-58
2021/07/12 06:50:31;;;;;;;2.73;2.53;;;17.40;99.90;;;;;;5034006;28;20207;-55
2021/07/12 06:52:56;;;;;;;2.90;2.70;;;17.40;99.90;;;;;;5038454;28;20216;-61
2021/07/12 06:55:22;;;;;;;2.80;2.60;;;17.50;99.90;;;;;;5033873;28;20625;-60
2021/07/12 06:57:47;;;;;;;3.43;3.13;;;17.60;99.90;;;;;;5033555;28;20205;-58
2021/07/12 07:00:14;;;;;;;3.03;2.70;;;17.60;99.90;;;;;;5033757;28;20176;-53
2021/07/12 07:02:40;;;;;;;3.20;2.90;;;17.60;99.90;;;;;;5033709;28;20221;-54
2021/07/12 07:05:07;;;;;;;2.80;2.60;;;17.60;99.90;;;;;;5033744;28;20163;-60
2021/07/12 07:07:33;;;;;;;2.90;2.70;;;17.50;99.90;;;;;;5033637;28;20192;-60
2021/07/12 07:09:59;;;;;;;3.43;3.13;;;17.60;99.90;;;;;;5037900;28;20184;-59
2021/07/12 07:12:24;;;;;;;3.50;3.13;;;17.50;99.90;;;;;;5033460;28;20226;-60
2021/07/12 07:14:50;;;;;;;3.33;3.03;;;17.60;99.90;;;;;;5033601;28;20176;-53
2021/07/12 07:17:16;;;;;;;2.97;2.77;;;17.60;99.90;;;;;;5033520;28;20208;-52
2021/07/12 07:19:41;;;;;;;3.20;2.93;;;17.60;99.90;;;;;;5033445;28;20223;-56
2021/07/12 07:22:07;;;;;;;3.53;3.13;;;17.50;99.90;;;;;;5033434;28;20252;-56
2021/07/12 07:24:32;;;;;;;3.40;3.10;;;17.50;99.90;;;;;;5033692;28;20178;-55
2021/07/12 07:26:58;;;;;;;3.23;3.03;;;17.50;99.90;;;;;;5036182;28;20190;-61
2021/07/12 07:29:23;;;;;;;4.20;3.23;;;17.60;99.90;;;;;;5035066;28;20651;-61
2021/07/12 07:31:50;;;;;;;4.93;3.20;;;17.80;99.90;;;;;;5033242;28;20600;-53
2021/07/12 07:34:16;;;;;;;3.40;3.10;;;17.80;99.90;;;;;;5033408;28;20576;-58
2021/07/12 07:36:42;;;;;;;4.10;3.57;;;17.80;99.90;;;;;;5033376;28;20168;-57
2021/07/12 07:39:08;;;;;;;2.83;2.63;;;17.90;99.90;;;;;;5033370;28;20183;-57
2021/07/12 07:41:36;;;;;;;2.80;2.60;;;18.00;99.90;;;;;;5033219;28;20653;-58
2021/07/12 07:44:04;;;;;;;3.23;3.03;;;18.10;99.90;;;;;;5033389;28;20643;-59
2021/07/12 07:46:30;;;;;;;3.07;2.87;;;18.10;99.90;;;;;;5033295;28;20174;-61
2021/07/12 07:48:55;;;;;;;4.00;3.10;;;18.00;99.90;;;;;;5033282;28;20250;-53
2021/07/12 07:51:21;;;;;;;3.37;3.07;;;18.10;99.90;;;;;;5033254;28;20225;-54
2021/07/12 07:53:47;;;;;;;3.13;2.87;;;18.40;99.90;;;;;;5034105;28;20223;-55
2021/07/12 07:56:12;;;;;;;2.70;2.50;;;18.60;99.90;;;;;;5036678;28;20624;-57
2021/07/12 07:58:38;;;;;;;2.80;2.60;;;18.60;99.90;;;;;;5036518;28;20211;-57
2021/07/12 08:01:03;;;;;;;2.50;2.27;;;18.70;99.90;;;;;;5039674;28;20176;-61
2021/07/12 08:03:29;;;;;;;2.23;2.13;;;18.80;99.90;;;;;;5037850;28;20184;-61
2021/07/12 08:05:54;;;;;;;1.60;1.50;;;18.80;99.90;;;;;;5036735;28;20263;-59
2021/07/12 08:08:20;;;;;;;1.70;1.60;;;18.80;99.90;;;;;;5036379;28;20192;-55
2021/07/12 08:10:45;;;;;;;1.70;1.60;;;19.00;99.90;;;;;;5036337;28;20667;-55
2021/07/12 08:13:12;;;;;;;1.60;1.50;;;19.10;99.90;;;;;;5036215;28;20275;-54
2021/07/12 08:15:38;;;;;;;1.57;1.47;;;19.20;99.90;;;;;;5036446;28;20180;-55
2021/07/12 08:18:04;;;;;;;2.70;2.50;;;19.50;99.90;;;;;;5039392;28;20223;-59
2021/07/12 08:20:29;;;;;;;2.70;2.50;;;19.50;99.90;;;;;;5037206;28;20207;-61
2021/07/12 08:22:55;;;;;;;2.93;2.53;;;19.50;99.90;;;;;;5036016;28;20659;-55
2021/07/12 08:25:21;;;;;;;2.40;2.20;;;19.40;99.90;;;;;;5036172;28;20256;-55
2021/07/12 08:27:48;;;;;;;2.40;2.03;;;19.50;99.90;;;;;;5036107;28;20219;-60
2021/07/12 08:30:15;;;;;;;2.10;1.90;;;19.70;99.90;;;;;;5036082;28;20184;-59
2021/07/12 08:32:42;;;;;;;2.17;1.87;;;19.80;99.90;;;;;;5036041;28;20275;-59
2021/07/12 08:35:09;;;;;;;2.10;2.00;;;19.90;99.90;;;;;;5036146;28;20211;-59
2021/07/12 08:37:35;;;;;;;1.87;1.77;;;20.00;99.90;;;;;;5040207;28;20614;-59
2021/07/12 08:40:01;;;;;;;1.77;1.67;;;20.00;99.90;;;;;;5036187;28;20171;-59
2021/07/12 08:42:27;;;;;;;1.60;1.50;;;20.00;99.90;;;;;;5035724;28;20222;-56
2021/07/12 08:44:53;;;;;;;1.57;1.47;;;20.10;99.90;;;;;;5035926;28;20176;-55
2021/07/12 08:47:19;;;;;;;2.07;1.67;;;20.30;99.90;;;;;;5035959;28;20534;-57
2021/07/12 08:49:44;;;;;;;1.43;1.33;;;20.50;99.90;;;;;;5035985;28;20175;-57
2021/07/12 08:52:10;;;;;;;1.93;1.60;;;20.90;99.90;;;;;;5034348;28;20182;-57
2021/07/12 08:54:38;;;;;;;2.45;1.52;;;21.00;99.90;;;;;;5040096;28;20251;-59
2021/07/12 08:57:04;;;;;;;2.20;1.47;;;21.20;99.90;;;;;;5035590;28;20259;-56
2021/07/12 08:59:31;;;;;;;1.50;1.40;;;21.40;99.90;;;;;;5035651;28;20206;-55
2021/07/12 09:02:05;;;;;;;3.33;1.30;;;21.40;99.90;;;;;;5035406;28;20183;-58
2021/07/12 09:04:32;;;;;;;2.47;1.40;;;21.60;99.90;;;;;;5035612;28;20168;-54
2021/07/12 09:06:59;;;;;;;1.73;1.63;;;21.80;99.90;;;;;;5034658;28;20188;-52
2021/07/12 09:09:25;;;;;;;1.50;1.40;;;21.90;99.90;;;;;;5035354;28;20182;-54
2021/07/12 09:11:50;;;;;;;1.58;1.48;;;22.00;99.90;;;;;;5035172;28;20171;-54
2021/07/12 09:14:17;;;;;;;3.90;1.48;;;21.90;99.90;;;;;;5025742;28;20541;-57
2021/07/12 09:16:47;;;;;;;1.02;1.02;;;21.90;99.90;;;;;;5030688;28;20186;-58
2021/07/12 09:19:29;;;;;;;1.83;1.65;;;21.80;99.90;;;;;;5034180;28;20262;-57
2021/07/12 09:22:10;;;;;;;2.10;1.90;;;21.80;99.90;;;;;;5035081;28;20222;-58
2021/07/12 09:24:49;;;;;;;1.90;1.80;;;21.80;99.90;;;;;;5035007;28;20175;-53
2021/07/12 09:27:18;;;;;;;1.88;1.70;;;21.90;99.90;;;;;;5038381;28;20215;-59
2021/07/12 09:29:49;;;;;;;1.83;1.70;;;22.10;99.90;;;;;;5023117;28;20184;-56
2021/07/12 09:32:17;;;;;;;2.75;2.10;;;22.10;99.90;;;;;;5037618;28;20580;-59
2021/07/12 09:34:43;;;;;;;1.40;1.35;;;22.20;99.90;;;;;;5016934;28;20169;-57
2021/07/12 09:37:13;;;;;;;1.55;1.30;;;22.40;99.90;;;;;;5025319;28;20541;-55
2021/07/12 09:39:40;;;;;;;1.48;1.38;;;22.30;99.90;;;;;;5017211;28;20178;-56
2021/07/12 09:42:10;;;;;;;1.50;1.30;;;22.40;99.90;;;;;;5022997;28;20691;-55
2021/07/12 09:44:43;;;;;;;1.60;1.50;;;22.60;99.90;;;;;;5029385;28;20176;-60
2021/07/12 09:47:11;;;;;;;1.50;1.40;;;22.80;99.90;;;;;;5018806;28;20254;-56
2021/07/12 09:49:37;;;;;;;2.08;1.40;;;23.10;99.90;;;;;;5015297;28;20181;-57
2021/07/12 09:52:06;;;;;;;5.07;1.55;;;23.40;99.90;;;;;;5014551;28;20173;-60
2021/07/12 09:54:35;;;;;;;1.70;1.30;;;23.50;99.90;;;;;;5014084;28;20197;-60
2021/07/12 09:57:04;;;;;;;1.70;1.60;;;23.50;99.90;;;;;;5022444;28;20216;-57
2021/07/12 09:59:30;;;;;;;1.60;1.50;;;23.70;99.90;;;;;;5034381;28;20192;-53
2021/07/12 10:01:56;;;;;;;1.98;1.40;;;23.70;99.90;;;;;;5037198;28;20179;-57
2021/07/12 10:04:23;;;;;;;1.80;1.70;;;23.50;99.90;;;;;;5034999;28;20222;-53
2021/07/12 10:06:50;;;;;;;1.58;1.48;;;23.50;99.90;;;;;;5034812;28;20171;-58
2021/07/12 10:09:22;;;;;;;1.88;1.77;;;23.40;99.90;;;;;;5034210;28;20242;-57
2021/07/12 10:11:53;;;;;;;1.50;1.40;;;23.40;99.90;;;;;;5020084;28;20181;-58
2021/07/12 10:14:20;;;;;;;1.25;1.25;;;23.70;99.90;;;;;;5030072;28;20182;-57
2021/07/12 10:16:46;;;;;;;1.40;1.30;;;23.70;99.90;;;;;;5032809;28;20222;-59
2021/07/12 10:19:12;;;;;;;1.38;1.10;;;24.00;99.90;;;;;;5038072;28;20506;-59
2021/07/12 10:21:41;;;;;;;2.35;1.40;;;24.20;99.90;;;;;;5014240;28;20645;-57
2021/07/12 10:24:07;;;;;;;1.00;1.00;;;24.20;99.90;;;;;;5017202;28;20180;-57
2021/07/12 10:26:57;;;;;;;1.75;1.48;;;24.40;99.90;;;;;;5033619;28;20176;-60
2021/07/12 10:29:32;;;;;;;1.90;1.80;;;24.60;99.90;;;;;;5032913;28;20175;-60
2021/07/12 10:32:10;;;;;;;1.50;1.40;;;24.90;99.90;;;;;;5033373;28;20218;-57
2021/07/12 10:34:41;;;;;;;1.00;1.00;;;25.20;99.90;;;;;;5031307;28;20177;-59
2021/07/12 10:37:13;;;;;;;1.48;1.38;;;25.50;99.90;;;;;;5033977;28;20192;-60
2021/07/12 10:40:00;;;;;;;1.33;1.23;;;25.40;99.90;;;;;;5031395;28;20506;-58
2021/07/12 10:42:43;;;;;;;1.20;1.10;;;25.60;99.90;;;;;;5013810;28;20181;-59
2021/07/12 10:45:16;;;;;;;1.08;0.90;;;25.90;99.90;;;;;;5031954;28;20180;-58
2021/07/12 10:47:55;;;;;;;1.83;1.10;;;25.80;99.90;;;;;;5032581;28;20208;-60
2021/07/12 10:50:33;;;;;;;1.40;1.30;;;25.50;99.90;;;;;;5030829;28;20182;-54
2021/07/12 10:53:00;;;;;;;0.70;0.70;;;25.50;99.90;;;;;;5030300;28;20560;-61
2021/07/12 10:55:33;;;;;;;1.48;1.38;;;25.40;99.90;;;;;;5032401;28;20183;-57
2021/07/12 10:58:28;;;;;;;1.02;1.00;;;25.60;99.90;;;;;;5030187;28;20283;-57
2021/07/12 11:01:00;;;;;;;1.00;1.00;;;25.50;99.90;;;;;;5032099;28;20165;-58
2021/07/12 11:03:51;;;;;;;2.25;1.00;;;25.80;99.90;;;;;;5032275;28;20180;-52
2021/07/12 11:06:22;;;;;;;2.42;1.50;;;25.90;99.90;;;;;;5030937;28;20175;-58
2021/07/12 11:08:58;;;;;;;1.58;1.48;;;25.80;99.90;;;;;;5033740;28;20211;-61
2021/07/12 11:11:24;;;;;;;1.30;1.20;;;25.70;99.90;;;;;;5033999;28;20186;-60
2021/07/12 11:13:57;;;;;;;1.88;1.38;;;25.70;99.90;;;;;;5034100;28;20176;-60
2021/07/12 11:16:38;;;;;;;1.77;1.20;;;25.50;99.90;;;;;;5033346;28;20666;-61
2021/07/12 11:19:28;;;;;;;1.00;1.00;;;25.70;99.90;;;;;;5033536;28;20555;-59
2021/07/12 11:22:14;;;;;;;1.27;1.23;;;25.90;99.90;;;;;;5033920;28;20173;-55
2021/07/12 11:25:03;;;;;;;1.00;1.00;;;26.20;99.90;;;;;;5033330;28;20263;-60
2021/07/12 11:27:43;;;;;;;0.85;0.85;;;26.30;99.90;;;;;;5033360;28;20200;-53
2021/07/12 11:30:27;;;;;;;0.82;0.82;;;26.20;99.90;;;;;;5036887;28;20340;-58
2021/07/12 11:32:53;;;;;;;0.88;0.88;;;25.90;99.90;;;;;;5036962;28;20172;-61
2021/07/12 11:35:18;;;;;;;0.93;0.93;;;26.20;99.90;;;;;;5037474;28;20182;-59
2021/07/12 11:37:44;;;;;;;1.10;1.10;;;26.60;99.90;;;;;;5037293;28;20286;-59
2021/07/12 11:40:10;;;;;;;0.70;0.70;;;26.80;99.90;;;;;;5037431;28;20183;-59
2021/07/12 11:42:39;;;;;;;1.40;0.90;;;27.10;99.90;;;;;;5036841;28;20168;-57
2021/07/12 11:45:06;;;;;;;0.70;0.70;;;27.40;99.90;;;;;;5037120;28;20175;-56
2021/07/12 11:47:34;;;;;;;0.90;0.90;;;27.00;99.90;;;;;;5036886;28;20663;-59
2021/07/12 11:50:08;;;;;;;0.75;0.63;;;26.80;99.90;;;;;;5036883;28;20203;-57
2021/07/12 11:52:36;;;;;;;1.30;0.65;;;26.80;99.90;;;;;;5036965;28;20559;-61
2021/07/12 11:55:15;;;;;;;0.80;0.80;;;26.70;99.90;;;;;;5037082;28;20206;-57
2021/07/12 11:57:43;;;;;;;0.82;0.82;;;26.90;99.90;;;;;;5037202;28;20200;-57
2021/07/12 12:00:15;;;;;;;0.90;0.90;;;26.60;99.90;;;;;;5036975;28;20172;-58
2021/07/12 12:02:41;;;;;;;0.80;0.80;;;26.60;99.90;;;;;;5036660;28;20179;-59
2021/07/12 12:05:09;;;;;;;0.65;0.60;;;26.90;99.90;;;;;;5036858;28;20176;-60
2021/07/12 12:07:36;;;;;;;1.58;0.70;;;27.10;99.90;;;;;;5035493;28;20570;-61
2021/07/12 12:10:23;;;;;;;0.60;0.60;;;27.20;99.90;;;;;;5034918;28;20203;-59
2021/07/12 12:12:56;;;;;;;1.02;0.90;;;27.30;99.90;;;;;;5032767;28;20208;-59
2021/07/12 12:15:23;;;;;;;0.80;0.80;;;27.40;99.90;;;;;;5036308;28;20190;-60
2021/07/12 12:18:17;;;;;;;1.00;1.00;;;27.40;99.90;;;;;;5036284;28;20208;-61
2021/07/12 12:20:54;;;;;;;1.23;0.82;;;27.50;99.90;;;;;;5032777;28;20623;-60
2021/07/12 12:23:26;;;;;;;1.00;0.80;;;27.40;99.90;;;;;;5033328;28;20180;-61
2021/07/12 12:26:08;;;;;;;0.88;0.88;;;27.70;99.90;;;;;;5034864;28;20836;-62
2021/07/12 12:28:50;;;;;;;1.10;1.00;;;27.80;99.90;;;;;;5035841;28;20184;-57
2021/07/12 12:31:21;;;;;;;0.68;0.68;;;27.60;99.90;;;;;;5035721;28;20233;-60
2021/07/12 12:34:06;;;;;;;1.08;0.80;;;27.60;99.90;;;;;;5035596;28;20532;-58
2021/07/12 12:36:34;;;;;;;0.85;0.85;;;27.70;99.90;;;;;;5035728;28;20172;-62
2021/07/12 12:39:09;;;;;;;1.10;1.08;;;27.80;99.90;;;;;;5035432;28;20599;-57
2021/07/12 12:41:37;;;;;;;1.00;1.00;;;28.20;99.90;;;;;;5034428;28;20187;-59
2021/07/12 12:44:05;;;;;;;0.80;0.80;;;28.60;99.90;;;;;;5035058;28;20259;-58
2021/07/12 12:46:38;;;;;;;0.75;0.60;;;28.40;99.90;;;;;;5035653;28;20199;-58
2021/07/12 12:49:17;;;;;;;0.52;0.52;;;28.50;99.90;;;;;;5035562;28;20218;-60
2021/07/12 12:51:52;;;;;;;0.93;0.65;;;28.50;99.90;;;;;;5035286;28;20172;-61
2021/07/12 12:54:19;;;;;;;2.13;0.90;;;28.40;99.90;;;;;;5023899;28;20790;-58
2021/07/12 12:56:49;;;;;;;1.88;0.90;;;28.30;99.90;;;;;;5034959;28;20175;-60
2021/07/12 12:59:16;;;;;;;1.17;0.93;;;28.30;99.90;;;;;;5033709;28;20269;-58